Time;durP1;ratioP1;P1;durP2;ratioP2;P2;SDS_P1;SDS_P2;PMS_P1;PMS_P2;Temp;Humidity;BMP_temperature;BMP_pressure;BME280_temperature;BME280_humidity;BME280_pressure;Samples;Min_cycle;Max_cycle;Signal;HPM_P1;HPM_P2
2021/10/25 00:00:10;;;;;;;11.47;7.70;;;;;;;4.09;59.33;101894.40;1682260;83;21915;-58
2021/10/25 00:02:40;;;;;;;12.80;8.27;;;;;;;4.05;59.57;101908.28;1691969;83;21019;-59
2021/10/25 00:05:08;;;;;;;10.93;7.87;;;;;;;4.01;59.80;101904.63;1691796;83;21104;-60
2021/10/25 00:07:34;;;;;;;13.23;9.77;;;;;;;3.97;59.88;101900.52;1698043;83;21080;-61
2021/10/25 00:10:01;;;;;;;10.18;8.00;;;;;;;3.94;60.01;101901.59;1694424;83;21105;-60
2021/10/25 00:12:27;;;;;;;14.25;7.40;;;;;;;3.90;60.08;101902.76;1681398;84;21030;-60
2021/10/25 00:14:55;;;;;;;12.07;8.23;;;;;;;3.88;60.19;101903.31;1670574;85;21027;-59
2021/10/25 00:17:21;;;;;;;;;;;;;;;3.85;60.37;101900.91;1606598;88;21046;-60
2021/10/25 00:19:49;;;;;;;11.57;7.13;;;;;;;3.78;60.43;101896.52;1628606;86;20136;-63
2021/10/25 00:22:16;;;;;;;10.28;7.50;;;;;;;3.68;60.82;101897.63;1667001;85;21016;-59
2021/10/25 00:24:42;;;;;;;10.67;7.40;;;;;;;3.63;60.92;101901.05;1658801;85;21529;-60
2021/10/25 00:27:09;;;;;;;11.57;7.35;;;;;;;3.56;61.26;101910.34;1650340;85;21018;-59
2021/10/25 00:29:36;;;;;;;11.73;8.37;;;;;;;3.51;61.53;101908.48;1647597;85;21078;-59
2021/10/25 00:32:03;;;;;;;;;;;;;;;3.45;61.48;101909.74;1655639;85;21074;-59
2021/10/25 00:34:29;;;;;;;8.33;7.43;;;;;;;3.41;61.79;101910.91;1658652;85;20134;-59
2021/10/25 00:36:55;;;;;;;11.53;6.50;;;;;;;3.31;61.74;101914.63;1651317;85;21186;-58
2021/10/25 00:39:22;;;;;;;10.57;7.40;;;;;;;3.26;61.88;101917.20;1665343;85;21078;-69
2021/10/25 00:41:51;;;;;;;8.83;6.37;;;;;;;3.24;61.92;101921.25;1666627;85;21042;-60
2021/10/25 00:44:17;;;;;;;8.10;5.70;;;;;;;3.19;62.12;101913.28;1646984;83;21552;-63
2021/10/25 00:46:43;;;;;;;7.50;6.22;;;;;;;3.15;62.27;101912.63;1684663;84;21051;-62
2021/10/25 00:49:09;;;;;;;9.40;6.17;;;;;;;3.10;62.28;101912.92;1698504;83;21060;-61
2021/10/25 00:51:36;;;;;;;;;;;;;;;3.08;62.37;101907.39;1706037;83;21064;-59
2021/10/25 00:54:02;;;;;;;8.73;5.00;;;;;;;3.13;62.34;101910.58;1703452;83;20161;-63
2021/10/25 00:56:32;;;;;;;6.40;4.92;;;;;;;3.15;62.37;101908.69;1687093;83;21004;-69
2021/10/25 00:58:59;;;;;;;7.70;5.30;;;;;;;3.02;62.40;101882.30;1684918;83;22042;-59
2021/10/25 01:01:25;;;;;;;7.08;5.20;;;;;;;3.11;62.58;101905.41;1674757;83;21498;-60
2021/10/25 01:03:52;;;;;;;6.72;4.70;;;;;;;3.11;62.76;101908.52;1655114;85;21069;-61
2021/10/25 01:06:17;;;;;;;;;;;;;;;3.07;62.87;101910.95;1653054;85;21553;-59
2021/10/25 01:08:44;;;;;;;6.67;4.20;;;;;;;3.04;62.89;101913.81;1646591;85;20603;-60
2021/10/25 01:11:11;;;;;;;;;;;;;;;2.95;63.07;101914.41;1663313;85;20975;-62
2021/10/25 01:13:39;;;;;;;9.38;4.83;;;;;;;2.92;63.26;101920.73;1685569;83;20112;-59
2021/10/25 01:16:07;;;;;;;5.33;4.27;;;;;;;2.86;63.30;101920.66;1693545;83;21532;-59
2021/10/25 01:18:34;;;;;;;5.17;4.07;;;;;;;2.83;63.35;101920.84;1684446;83;21088;-62
2021/10/25 01:21:01;;;;;;;4.87;3.60;;;;;;;2.84;63.43;101919.05;1688056;84;21040;-58
2021/10/25 01:23:27;;;;;;;6.70;3.63;;;;;;;2.87;63.40;101927.60;1679032;83;21112;-60
2021/10/25 01:25:55;;;;;;;3.70;3.22;;;;;;;2.85;63.40;101926.86;1691830;83;21537;-74
2021/10/25 01:28:22;;;;;;;5.27;3.70;;;;;;;2.86;63.49;101929.88;1692350;83;21072;-60
2021/10/25 01:30:49;;;;;;;6.47;4.13;;;;;;;2.82;63.45;101933.62;1688677;83;21028;-58
2021/10/25 01:33:16;;;;;;;5.60;3.70;;;;;;;2.78;63.55;101935.25;1685468;83;21021;-59
2021/10/25 01:35:43;;;;;;;5.63;3.87;;;;;;;2.76;63.70;101937.98;1685738;83;21518;-60
2021/10/25 01:38:10;;;;;;;4.60;3.37;;;;;;;2.74;63.76;101943.82;1642180;86;21539;-60
2021/10/25 01:40:38;;;;;;;5.33;3.00;;;;;;;2.74;63.75;101951.72;1625143;86;21680;-61
2021/10/25 01:43:05;;;;;;;5.20;3.43;;;;;;;2.72;63.86;101950.97;1687668;83;21053;-61
2021/10/25 01:45:33;;;;;;;4.73;3.97;;;;;;;2.72;63.89;101956.24;1677350;83;21005;-59
2021/10/25 01:48:00;;;;;;;3.77;3.00;;;;;;;2.69;63.93;101963.88;1681556;83;21143;-60
2021/10/25 01:50:27;;;;;;;5.00;3.03;;;;;;;2.69;63.96;101963.88;1681130;83;21080;-62
2021/10/25 01:54:29;;;;;;;4.07;2.87;;;;;;;2.84;63.76;101969.09;1808475;79;22840;-58
2021/10/25 01:56:55;;;;;;;;;;;;;;;2.78;63.83;101970.80;1776724;79;21069;-59
2021/10/25 01:59:21;;;;;;;3.57;2.63;;;;;;;2.76;63.91;101973.53;1776036;79;20136;-60
2021/10/25 02:01:47;;;;;;;5.15;3.40;;;;;;;2.70;64.09;101969.98;1736857;79;21581;-61
2021/10/25 02:04:14;;;;;;;5.20;2.35;;;;;;;2.68;63.98;101971.86;1708184;81;20998;-60
2021/10/25 02:06:41;;;;;;;4.37;2.40;;;;;;;2.65;64.04;101976.00;1724141;82;21229;-62
2021/10/25 02:09:07;;;;;;;2.95;2.12;;;;;;;2.59;64.06;101972.44;1705102;81;21012;-62
2021/10/25 02:11:33;;;;;;;2.67;2.02;;;;;;;2.60;64.06;101974.11;1706220;81;21026;-59
2021/10/25 02:14:03;;;;;;;2.93;2.43;;;;;;;2.55;64.13;101976.22;1709536;83;21073;-60
2021/10/25 02:16:29;;;;;;;3.13;2.20;;;;;;;2.52;64.23;101973.28;1680362;84;20986;-59
2021/10/25 02:18:55;;;;;;;3.62;2.67;;;;;;;2.50;64.36;101978.63;1710988;82;21050;-61
2021/10/25 02:21:23;;;;;;;4.23;3.07;;;;;;;2.49;64.39;101982.70;1722646;82;21024;-59
2021/10/25 02:23:50;;;;;;;4.20;2.92;;;;;;;2.50;64.29;101986.53;1743949;81;21047;-74
2021/10/25 02:26:16;;;;;;;;;;;;;;;2.47;64.45;101983.27;1747519;81;20994;-60
2021/10/25 02:28:43;;;;;;;5.83;2.57;;;;;;;2.46;64.44;101982.88;1745503;81;20147;-60
2021/10/25 02:31:11;;;;;;;;;;;;;;;2.37;64.65;101986.92;1737814;81;21528;-64
2021/10/25 02:33:40;;;;;;;4.80;2.00;;;;;;;2.33;64.76;101988.05;1709644;82;20119;-59
2021/10/25 02:36:08;;;;;;;3.07;1.63;;;;;;;2.31;64.94;101989.94;1695909;82;21396;-60
2021/10/25 02:38:38;;;;;;;3.63;2.43;;;;;;;2.25;64.97;101989.00;1685797;84;21023;-60
2021/10/25 02:41:07;;;;;;;2.80;2.57;;;;;;;2.20;64.96;101991.06;1697805;83;21554;-60
2021/10/25 02:43:35;;;;;;;3.10;2.57;;;;;;;2.10;65.12;101996.04;1705716;83;21081;-59
2021/10/25 02:46:04;;;;;;;2.73;2.53;;;;;;;2.08;65.35;102007.13;1693235;82;21006;-65
2021/10/25 02:48:30;;;;;;;3.03;2.70;;;;;;;1.99;65.41;102003.25;1699250;82;20971;-60
2021/10/25 02:50:57;;;;;;;6.70;3.40;;;;;;;1.97;65.61;102002.98;1692634;82;21033;-60
2021/10/25 02:53:24;;;;;;;3.42;3.12;;;;;;;2.02;65.55;102004.39;1681430;83;21085;-62
2021/10/25 02:55:51;;;;;;;6.47;3.73;;;;;;;2.00;65.55;102013.30;1689399;82;22130;-61
2021/10/25 02:58:17;;;;;;;5.72;3.62;;;;;;;1.90;65.92;102013.87;1699952;83;21004;-62
2021/10/25 03:00:45;;;;;;;3.73;3.10;;;;;;;1.85;66.15;102017.70;1695440;83;21024;-59
2021/10/25 03:03:12;;;;;;;4.42;3.77;;;;;;;1.84;66.37;102016.00;1684521;83;21087;-59
2021/10/25 03:05:40;;;;;;;3.73;2.90;;;;;;;1.84;66.40;102016.00;1700293;81;21018;-59
2021/10/25 03:08:07;;;;;;;7.43;3.60;;;;;;;1.88;66.37;102020.97;1714286;82;21013;-60
2021/10/25 03:10:37;;;;;;;2.90;2.70;;;;;;;1.90;66.40;102016.50;1689384;83;22163;-58
2021/10/25 03:13:03;;;;;;;5.05;3.55;;;;;;;1.95;66.38;102012.27;1676147;83;21615;-66
2021/10/25 03:15:29;;;;;;;5.85;3.05;;;;;;;1.93;66.24;102017.61;1679158;83;21549;-60
2021/10/25 03:17:55;;;;;;;5.35;3.80;;;;;;;1.94;66.25;102018.45;1687822;83;21533;-60
2021/10/25 03:20:23;;;;;;;4.47;3.70;;;;;;;1.95;66.23;102016.21;1690156;83;21129;-60
2021/10/25 03:22:49;;;;;;;6.17;4.25;;;;;;;1.94;66.34;102014.06;1686835;82;21461;-61
2021/10/25 03:25:17;;;;;;;5.63;3.77;;;;;;;1.98;66.20;102031.82;1686995;83;21063;-59
2021/10/25 03:27:44;;;;;;;5.90;4.37;;;;;;;1.94;66.26;102023.70;1723719;82;21578;-61
2021/10/25 03:30:12;;;;;;;4.80;2.83;;;;;;;1.91;66.31;102025.22;1695285;82;20963;-62
2021/10/25 03:32:41;;;;;;;4.27;2.90;;;;;;;1.87;66.33;102028.98;1711758;81;21012;-60
2021/10/25 03:35:14;;;;;;;5.37;2.70;;;;;;;1.79;66.41;102028.11;1696851;83;21532;-60
2021/10/25 03:37:40;;;;;;;4.72;3.20;;;;;;;1.72;66.67;102032.88;1699171;83;21038;-61
2021/10/25 03:40:09;;;;;;;3.72;3.40;;;;;;;1.72;66.79;102032.88;1680479;83;21096;-64
2021/10/25 03:42:42;;;;;;;3.50;3.20;;;;;;;1.69;66.88;102029.09;1693797;84;21430;-61
2021/10/25 03:45:16;;;;;;;9.33;3.80;;;;;;;1.69;66.95;102029.09;1698932;83;21049;-59
2021/10/25 03:47:48;;;;;;;5.00;3.30;;;;;;;1.66;66.95;102033.70;1653698;84;21007;-59
2021/10/25 03:50:29;;;;;;;4.33;3.60;;;;;;;1.63;67.08;102033.87;1653353;84;21075;-63
2021/10/25 03:58:46;;;;;;;5.05;4.50;;;;;;;1.51;67.57;102034.13;1681915;82;21462;-60
2021/10/25 04:28:11;;;;;;;19.23;9.47;;;;;;;1.31;68.22;102059.72;1704743;82;21101;-59
2021/10/25 04:30:38;;;;;;;18.93;9.73;;;;;;;1.30;68.22;102055.42;1723272;82;21051;-61
2021/10/25 04:33:06;;;;;;;16.93;8.60;;;;;;;1.32;68.20;102062.75;1720037;81;21005;-59
2021/10/25 04:35:37;;;;;;;13.70;9.70;;;;;;;1.32;68.27;102060.59;1711419;82;21043;-60
2021/10/25 04:38:06;;;;;;;18.47;10.53;;;;;;;1.33;68.15;102063.11;1720295;82;21079;-61
2021/10/25 04:40:32;;;;;;;16.60;9.28;;;;;;;1.29;68.28;102060.28;1710110;82;21033;-60
2021/10/25 04:42:59;;;;;;;16.48;9.28;;;;;;;1.30;68.26;102059.36;1709938;82;21022;-60
2021/10/25 04:45:25;;;;;;;17.70;10.63;;;;;;;1.28;68.39;102055.97;1698342;81;21497;-59
2021/10/25 04:47:54;;;;;;;14.23;7.83;;;;;;;1.29;68.49;102056.81;1720849;82;21003;-59
2021/10/25 04:50:41;;;;;;;15.07;8.00;;;;;;;1.29;68.57;102057.66;1715435;82;21003;-61
2021/10/25 04:53:09;;;;;;;15.90;9.33;;;;;;;1.34;68.57;102056.09;1716535;82;21082;-60
2021/10/25 04:55:36;;;;;;;11.48;8.15;;;;;;;1.36;68.54;102064.27;1718536;80;21007;-62
2021/10/25 04:58:03;;;;;;;12.87;9.43;;;;;;;1.47;68.56;102058.41;1737416;81;21533;-59
2021/10/25 05:00:29;;;;;;;;;;;;;;;1.55;68.55;102059.29;1726676;81;21163;-60
2021/10/25 05:02:55;;;;;;;17.00;9.10;;;;;;;1.70;68.51;102070.70;1728829;81;20127;-62
2021/10/25 05:05:22;;;;;;;18.45;10.05;;;;;;;1.97;68.69;102073.51;1713519;81;21545;-61
2021/10/25 05:07:49;;;;;;;22.17;10.10;;;;;;;2.56;68.32;102073.97;1717775;81;21000;-59
2021/10/25 05:10:15;;;;;;;18.87;8.90;;;;;;;3.27;66.52;102077.00;1683040;83;21022;-59
2021/10/25 05:12:41;;;;;;;25.68;9.95;;;;;;;4.07;63.91;102078.38;1719429;81;21152;-63
2021/10/25 05:15:08;;;;;;;15.78;9.38;;;;;;;4.74;62.07;102080.81;1694255;83;21065;-62
2021/10/25 05:17:36;;;;;;;15.83;10.67;;;;;;;5.29;59.63;102080.48;1719367;82;21407;-61
2021/10/25 05:20:05;;;;;;;15.80;9.43;;;;;;;5.48;57.47;102081.30;1697053;82;21050;-65
2021/10/25 05:22:34;;;;;;;16.67;11.50;;;;;;;5.68;57.36;102086.46;1706021;82;21038;-60
2021/10/25 05:25:00;;;;;;;22.65;12.00;;;;;;;6.03;56.30;102092.64;1709264;82;20986;-61
2021/10/25 05:27:26;;;;;;;16.12;11.03;;;;;;;6.42;55.02;102094.55;1651459;85;21177;-61
2021/10/25 05:29:53;;;;;;;16.00;10.35;;;;;;;6.92;53.88;102093.37;1649611;84;21047;-63
2021/10/25 05:32:19;;;;;;;12.25;10.85;;;;;;;7.49;52.32;102092.78;1634416;86;21559;-61
2021/10/25 05:34:45;;;;;;;21.35;12.05;;;;;;;8.12;50.14;102092.90;1687375;82;21557;-64
2021/10/25 05:37:12;;;;;;;15.03;10.48;;;;;;;8.62;48.31;102096.22;1689190;82;21048;-61
2021/10/25 05:39:38;;;;;;;13.60;9.67;;;;;;;9.02;47.48;102093.56;1704323;82;21038;-61
2021/10/25 05:42:08;;;;;;;13.97;11.07;;;;;;;9.46;46.41;102098.60;1708990;82;20990;-61
2021/10/25 05:44:36;;;;;;;22.97;12.43;;;;;;;9.88;45.75;102103.66;1708816;83;21026;-64
2021/10/25 05:47:03;;;;;;;20.12;11.05;;;;;;;10.26;44.10;102106.77;1712945;82;21497;-63
2021/10/25 05:49:31;;;;;;;15.57;10.90;;;;;;;10.49;43.85;102108.67;1685524;82;21056;-61
2021/10/25 05:51:57;;;;;;;14.30;10.93;;;;;;;10.38;42.96;102103.98;1699668;82;21013;-64
2021/10/25 05:54:26;;;;;;;12.78;11.35;;;;;;;9.75;43.76;102112.76;1714168;82;21069;-69
2021/10/25 05:56:53;;;;;;;29.77;17.70;;;;;;;9.03;45.29;102115.71;1739524;80;20970;-64
2021/10/25 05:59:24;;;;;;;13.60;11.33;;;;;;;8.39;46.32;102117.11;1740718;80;21033;-61
2021/10/25 06:01:57;;;;;;;17.20;11.50;;;;;;;7.78;47.42;102131.55;1750499;80;21892;-61
2021/10/25 06:04:21;;;;;;;13.03;11.63;;;;;;;7.19;49.00;102132.25;1749937;80;20998;-60
2021/10/25 06:06:50;;;;;;;17.70;12.47;;;;;;;6.61;50.35;102136.82;1746540;80;20997;-61
2021/10/25 06:09:16;;;;;;;15.15;11.38;;;;;;;6.07;51.59;102142.72;1736519;81;20982;-61
2021/10/25 06:11:43;;;;;;;21.25;11.93;;;;;;;5.66;52.96;102144.29;1729947;80;21082;-61
2021/10/25 06:14:11;;;;;;;21.20;12.80;;;;;;;5.36;54.37;102147.84;1722853;82;21496;-69
2021/10/25 06:16:42;;;;;;;21.07;12.50;;;;;;;5.05;55.09;102144.25;1722996;82;21089;-62
2021/10/25 06:19:11;;;;;;;20.93;14.10;;;;;;;4.79;56.42;102147.39;1728950;82;20961;-63
2021/10/25 06:21:38;;;;;;;19.80;13.60;;;;;;;4.62;57.10;102154.31;1710883;82;21013;-68
2021/10/25 06:24:05;;;;;;;22.20;15.03;;;;;;;4.48;57.61;102148.63;1708539;82;21009;-60
2021/10/25 06:26:35;;;;;;;21.03;14.10;;;;;;;4.34;58.04;102151.38;1728425;82;21069;-61
2021/10/25 06:29:01;;;;;;;22.05;14.23;;;;;;;4.28;58.64;102157.91;1710441;82;21049;-61
2021/10/25 06:31:28;;;;;;;21.23;13.72;;;;;;;4.26;58.97;102161.97;1699042;82;21009;-62
2021/10/25 06:33:59;;;;;;;22.27;15.93;;;;;;;4.17;59.92;102158.63;1709422;81;21937;-61
2021/10/25 06:36:34;;;;;;;28.70;14.57;;;;;;;4.06;60.16;102167.72;1721730;81;21049;-61
2021/10/25 06:39:14;;;;;;;22.83;16.20;;;;;;;4.03;60.68;102164.83;1717724;81;21056;-64
2021/10/25 06:41:48;;;;;;;22.90;14.30;;;;;;;4.04;60.88;102169.14;1726408;81;21117;-63
2021/10/25 06:44:16;;;;;;;28.40;15.50;;;;;;;4.04;61.36;102169.14;1730688;81;21482;-62
2021/10/25 06:46:44;;;;;;;19.90;12.67;;;;;;;4.07;61.46;102171.59;1688999;82;21069;-62
2021/10/25 06:49:10;;;;;;;19.93;13.70;;;;;;;4.10;61.60;102176.64;1723025;82;21494;-61
2021/10/25 06:51:39;;;;;;;19.97;13.97;;;;;;;4.17;61.56;102173.63;1699229;82;21019;-61
2021/10/25 06:54:06;;;;;;;20.10;12.93;;;;;;;4.26;61.24;102176.97;1706612;82;21026;-62
2021/10/25 06:56:35;;;;;;;18.20;11.37;;;;;;;4.31;61.31;102178.81;1720206;81;21069;-61
2021/10/25 06:59:01;;;;;;;18.30;11.53;;;;;;;4.40;61.31;102175.55;1708792;82;21098;-62
2021/10/25 07:01:28;;;;;;;;;;;;;;;4.47;61.19;102177.33;1715346;82;21057;-61
2021/10/25 07:03:55;;;;;;;14.80;11.17;;;;;;;4.52;60.90;102184.92;1750762;81;20094;-62
2021/10/25 07:06:23;;;;;;;20.13;11.33;;;;;;;4.47;61.17;102182.13;1730012;82;21057;-62
2021/10/25 07:08:52;;;;;;;13.93;10.13;;;;;;;4.51;61.15;102177.97;1707241;82;21056;-62
2021/10/25 07:11:18;;;;;;;11.37;8.30;;;;;;;4.57;61.10;102177.06;1711055;82;21134;-63
2021/10/25 07:13:47;;;;;;;11.63;8.13;;;;;;;4.68;61.04;102172.37;1711979;82;21499;-61
2021/10/25 07:16:23;;;;;;;9.07;6.60;;;;;;;4.80;60.63;102179.93;1715189;83;20986;-65
2021/10/25 08:10:16;;;;;;;7.77;5.93;;;;;;;5.90;54.06;102119.64;1715335;82;21007;-64
2021/10/25 08:12:55;;;;;;;5.80;5.17;;;;;;;6.29;54.05;102175.91;1716326;82;21098;-61
2021/10/25 08:15:21;;;;;;;6.60;4.67;;;;;;;6.39;53.71;102172.91;1704745;82;21159;-65
2021/10/25 08:17:50;;;;;;;6.57;4.70;;;;;;;6.49;53.18;102178.84;1715987;82;21027;-61
2021/10/25 08:20:15;;;;;;;6.50;4.83;;;;;;;6.53;52.79;102173.18;1726871;82;21083;-62
2021/10/25 08:22:42;;;;;;;;;;;;;;;6.57;52.61;102171.14;1715738;82;21101;-63
2021/10/25 08:25:10;;;;;;;3.20;2.55;;;;;;;6.63;51.21;102168.05;1708488;82;20438;-67
2021/10/25 08:27:42;;;;;;;3.67;2.03;;;;;;;6.61;51.10;102172.59;1708170;82;21458;-61
2021/10/25 08:30:12;;;;;;;2.57;1.57;;;;;;;6.66;49.96;102165.14;1706462;82;20968;-62
2021/10/25 08:35:37;;;;;;;2.23;1.07;;;;;;;6.79;49.46;102166.38;1709053;82;21674;-62
2021/10/25 08:41:01;;;;;;;2.03;1.73;;;;;;;6.88;48.57;102173.61;1712811;82;21057;-66
2021/10/25 08:43:28;;;;;;;1.80;1.50;;;;;;;6.82;48.02;102165.66;1726770;82;21094;-61
2021/10/25 08:45:57;;;;;;;1.42;0.90;;;;;;;6.81;48.26;102169.25;1716420;81;21533;-63
2021/10/25 08:48:24;;;;;;;1.30;0.83;;;;;;;6.81;46.86;102169.74;1716833;82;21870;-61
2021/10/25 08:50:51;;;;;;;1.83;1.37;;;;;;;6.80;47.63;102172.05;1711287;82;21034;-63
2021/10/25 08:53:18;;;;;;;0.85;0.78;;;;;;;6.84;47.56;102162.89;1689262;83;21007;-60
2021/10/25 08:55:51;;;;;;;1.63;1.33;;;;;;;6.89;47.19;102158.05;1721815;82;20944;-63
2021/10/25 08:58:19;;;;;;;3.73;1.10;;;;;;;6.95;47.21;102147.45;1722782;82;21056;-63
2021/10/25 09:00:53;;;;;;;2.57;0.80;;;;;;;7.03;47.32;102151.69;1718792;81;21518;-60
2021/10/25 09:03:23;;;;;;;1.90;1.33;;;;;;;7.14;47.06;102156.13;1707380;82;21015;-71
2021/10/25 09:05:57;;;;;;;1.23;1.10;;;;;;;6.99;46.67;102143.62;1715539;82;21036;-62
2021/10/25 09:08:25;;;;;;;2.77;2.43;;;;;;;7.08;46.53;102158.78;1722281;82;21109;-62
2021/10/25 09:10:53;;;;;;;3.30;1.23;;;;;;;7.05;46.44;102160.36;1690873;84;21005;-64
2021/10/25 09:13:24;;;;;;;1.20;0.97;;;;;;;6.98;46.63;102158.66;1729345;82;20991;-61
2021/10/25 09:16:00;;;;;;;2.70;0.70;;;;;;;6.99;46.52;102150.25;1723101;82;20963;-62
2021/10/25 09:18:32;;;;;;;1.90;0.50;;;;;;;7.02;46.70;102150.83;1707710;82;21014;-63
2021/10/25 09:21:06;;;;;;;1.10;0.70;;;;;;;7.08;46.40;102145.52;1718220;82;21028;-63
2021/10/25 09:23:44;;;;;;;0.90;0.80;;;;;;;7.11;46.42;102149.27;1685720;84;21132;-61
2021/10/25 09:26:22;;;;;;;1.32;0.70;;;;;;;7.16;46.21;102142.30;1703334;82;21001;-62
2021/10/25 09:28:55;;;;;;;2.10;0.97;;;;;;;7.16;46.01;102144.45;1722401;82;21522;-62
2021/10/25 09:31:30;;;;;;;2.70;1.03;;;;;;;7.14;45.77;102139.76;1690501;82;21034;-62
2021/10/25 09:34:02;;;;;;;1.20;1.03;;;;;;;7.12;45.90;102140.82;1711774;81;21105;-61
2021/10/25 09:36:57;;;;;;;2.43;2.10;;;;;;;7.11;46.13;102144.45;1720179;82;22599;-64
2021/10/25 09:50:20;;;;;;;2.60;1.70;;;;;;;7.24;45.96;102136.38;1731795;81;21552;-65
2021/10/25 09:52:47;;;;;;;5.77;2.20;;;;;;;7.29;46.21;102127.55;1745727;80;21117;-65
2021/10/25 09:55:19;;;;;;;3.17;1.83;;;;;;;7.36;45.80;102134.05;1730668;81;21128;-63
2021/10/25 10:00:34;;;;;;;2.80;1.77;;;;;;;7.40;45.74;102123.09;1734664;81;21057;-65
2021/10/25 10:03:01;;;;;;;2.60;2.00;;;;;;;7.48;45.82;102125.11;1738399;81;21006;-62
2021/10/25 10:05:36;;;;;;;2.53;1.50;;;;;;;7.51;45.67;102121.36;1712648;81;21083;-62
2021/10/25 10:08:00;;;;;;;4.70;2.37;;;;;;;7.56;45.65;102128.47;1728133;81;21466;-63
2021/10/25 10:10:29;;;;;;;2.43;2.10;;;;;;;7.61;45.49;102126.30;1739945;81;21042;-63
2021/10/25 10:13:02;;;;;;;2.93;1.97;;;;;;;7.67;45.24;102119.64;1734930;81;21186;-63
2021/10/25 10:15:34;;;;;;;4.27;2.00;;;;;;;7.70;45.05;102111.41;1720789;81;21090;-63
2021/10/25 10:18:23;;;;;;;2.50;2.30;;;;;;;7.69;45.18;102105.27;1737319;81;21119;-63
2021/10/25 10:21:08;;;;;;;2.50;2.20;;;;;;;7.69;45.19;102109.74;1735912;81;21035;-66
2021/10/25 10:23:37;;;;;;;4.37;3.63;;;;;;;7.70;45.00;102104.77;1739720;81;20997;-62
2021/10/25 10:26:08;;;;;;;2.80;2.10;;;;;;;7.68;45.09;102096.09;1707296;82;21474;-63
2021/10/25 10:28:49;;;;;;;2.90;1.97;;;;;;;7.71;45.22;102097.19;1739553;81;21053;-65
2021/10/25 10:31:24;;;;;;;2.93;2.10;;;;;;;7.75;44.95;102098.11;1719861;81;21010;-64
2021/10/25 10:33:57;;;;;;;1.57;1.13;;;;;;;7.80;44.66;102104.39;1729520;81;21018;-62
2021/10/25 10:36:28;;;;;;;1.80;1.50;;;;;;;7.81;44.42;102095.44;1729780;81;20974;-63
2021/10/25 10:39:15;;;;;;;2.23;1.20;;;;;;;7.79;44.16;102089.41;1729247;81;21632;-65
2021/10/25 10:42:05;;;;;;;4.73;1.40;;;;;;;7.80;44.27;102090.63;1730341;81;21011;-61
2021/10/25 10:44:52;;;;;;;1.77;1.30;;;;;;;7.83;44.09;102089.52;1721733;81;21089;-65
2021/10/25 10:47:19;;;;;;;1.50;1.10;;;;;;;7.83;44.12;102088.19;1740010;81;21023;-64
2021/10/25 10:49:55;;;;;;;2.20;1.27;;;;;;;7.84;44.14;102083.25;1736771;81;21027;-62
2021/10/25 10:52:34;;;;;;;1.57;1.43;;;;;;;7.88;44.08;102087.83;1716416;81;20992;-62
2021/10/25 10:55:27;;;;;;;4.07;1.80;;;;;;;7.93;43.95;102087.80;1730701;81;21570;-63
2021/10/25 11:00:40;;;;;;;4.77;1.40;;;;;;;7.99;43.31;102087.27;1722399;81;21041;-63
2021/10/25 11:03:15;;;;;;;4.73;2.00;;;;;;;7.99;43.27;102085.95;1737403;81;21050;-63
2021/10/25 11:05:45;;;;;;;1.67;1.50;;;;;;;8.00;43.31;102086.78;1731619;81;21537;-65
2021/10/25 11:08:16;;;;;;;3.40;1.50;;;;;;;8.04;43.29;102088.70;1736891;81;21585;-63
2021/10/25 11:10:46;;;;;;;1.37;0.73;;;;;;;8.06;42.82;102085.42;1736029;81;21049;-64
2021/10/25 11:13:22;;;;;;;3.63;1.00;;;;;;;8.05;42.92;102082.43;1736288;81;21094;-62
2021/10/25 11:18:37;;;;;;;2.40;1.37;;;;;;;8.08;43.01;102080.82;1730060;81;21038;-62
2021/10/25 11:21:16;;;;;;;1.07;0.90;;;;;;;8.08;42.91;102075.52;1731368;82;21043;-62
2021/10/25 11:23:57;;;;;;;2.77;1.40;;;;;;;8.09;42.66;102076.72;1729435;81;21098;-60
2021/10/25 11:26:34;;;;;;;3.83;1.43;;;;;;;8.13;42.18;102074.16;1735154;81;21017;-64
2021/10/25 11:29:24;;;;;;;3.22;1.30;;;;;;;8.13;41.74;102071.98;1710995;81;20988;-62
2021/10/25 11:31:56;;;;;;;2.10;1.20;;;;;;;8.12;41.83;102073.81;1738231;81;20979;-62
2021/10/25 11:34:34;;;;;;;2.77;1.50;;;;;;;8.11;41.94;102070.78;1733169;81;21593;-64
2021/10/25 11:37:22;;;;;;;3.17;1.50;;;;;;;8.12;41.98;102067.66;1734433;81;20987;-63
2021/10/25 11:40:00;;;;;;;3.37;1.33;;;;;;;8.11;41.92;102062.81;1719276;81;21034;-62
2021/10/25 11:42:30;;;;;;;1.37;1.23;;;;;;;8.08;42.17;102067.55;1724989;81;21022;-64
2021/10/25 11:45:01;;;;;;;2.60;1.60;;;;;;;8.08;42.31;102056.92;1709348;81;21101;-75
2021/10/25 11:47:32;;;;;;;1.73;1.20;;;;;;;8.11;42.40;102051.36;1704528;81;21014;-62
2021/10/25 11:50:10;;;;;;;6.33;1.43;;;;;;;8.10;42.41;102049.66;1710031;81;21022;-61
2021/10/25 11:52:42;;;;;;;5.10;0.80;;;;;;;8.08;42.36;102045.83;1729743;81;21122;-72
2021/10/25 11:55:12;;;;;;;1.40;1.10;;;;;;;8.07;42.51;102049.94;1740830;81;21034;-61
2021/10/25 11:57:55;;;;;;;3.40;1.30;;;;;;;8.06;42.38;102038.95;1730451;81;21033;-62
2021/10/25 12:00:24;;;;;;;6.97;1.57;;;;;;;8.03;42.62;102041.88;1729687;82;20988;-65
2021/10/25 12:03:10;;;;;;;4.07;0.97;;;;;;;8.04;42.51;102040.89;1724778;81;21521;-61
2021/10/25 12:05:40;;;;;;;5.80;1.40;;;;;;;8.05;42.53;102042.59;1723884;81;21035;-62
2021/10/25 12:08:11;;;;;;;3.07;1.10;;;;;;;8.06;42.39;102032.31;1729101;81;21034;-64
2021/10/25 12:10:40;;;;;;;6.90;2.13;;;;;;;8.07;42.38;102030.02;1733974;81;21022;-62
2021/10/25 12:13:10;;;;;;;1.97;1.40;;;;;;;8.05;41.96;102027.98;1725431;81;20999;-64
2021/10/25 12:15:47;;;;;;;3.57;2.00;;;;;;;8.03;41.97;102020.64;1740333;81;20955;-64
2021/10/25 12:18:19;;;;;;;3.20;1.52;;;;;;;8.04;42.05;102027.62;1726912;81;21130;-63
2021/10/25 12:20:47;;;;;;;4.27;1.67;;;;;;;8.04;42.19;102027.13;1725179;81;21042;-67
2021/10/25 12:23:23;;;;;;;6.20;2.23;;;;;;;8.07;42.24;102026.87;1741856;81;21049;-62
2021/10/25 12:26:00;;;;;;;8.53;3.23;;;;;;;8.11;42.18;102017.66;1736529;81;21446;-62
2021/10/25 12:28:27;;;;;;;14.50;3.37;;;;;;;8.18;41.96;102019.33;1721180;81;21013;-62
2021/10/25 12:31:07;;;;;;;11.67;3.93;;;;;;;8.22;41.76;102012.77;1733753;81;21117;-61
2021/10/25 12:33:35;;;;;;;8.20;4.30;;;;;;;8.25;41.80;102011.19;1736437;82;21324;-60
2021/10/25 12:36:13;;;;;;;4.47;3.10;;;;;;;8.28;41.86;102010.07;1713664;81;21038;-63
2021/10/25 12:38:42;;;;;;;;;;;;;;;8.31;41.88;102002.68;1739559;81;21498;-63
2021/10/25 12:41:09;;;;;;;4.77;2.60;;;;;;;8.34;41.84;101999.77;1738526;81;20146;-63
2021/10/25 12:43:54;;;;;;;7.27;3.17;;;;;;;8.31;41.90;101997.37;1741271;81;20995;-61
2021/10/25 12:46:23;;;;;;;8.10;3.27;;;;;;;8.33;41.93;101993.25;1729766;81;21030;-59
2021/10/25 12:48:53;;;;;;;9.17;2.83;;;;;;;8.36;41.80;101991.17;1720238;81;21000;-61
2021/10/25 12:51:23;;;;;;;6.87;3.37;;;;;;;8.38;41.67;101990.55;1739506;81;21026;-61
2021/10/25 12:53:51;;;;;;;6.87;3.03;;;;;;;8.40;41.59;101998.39;1711756;81;21435;-62
2021/10/25 12:56:28;;;;;;;8.47;3.37;;;;;;;8.40;41.65;101995.73;1732506;81;21549;-62
2021/10/25 12:59:00;;;;;;;4.20;2.33;;;;;;;8.41;41.74;102000.06;1719673;81;21097;-63
2021/10/25 13:01:26;;;;;;;5.97;3.17;;;;;;;8.39;41.59;101993.55;1722418;81;21018;-62
2021/10/25 13:03:59;;;;;;;7.58;2.42;;;;;;;8.37;41.60;101986.20;1731318;81;21027;-62
2021/10/25 13:06:31;;;;;;;4.67;3.50;;;;;;;8.34;41.67;101987.81;1740317;81;21003;-62
2021/10/25 13:09:08;;;;;;;8.80;2.23;;;;;;;8.34;41.74;101986.48;1733731;81;21054;-61
2021/10/25 13:11:37;;;;;;;12.50;3.63;;;;;;;8.34;41.40;101985.63;1729199;81;21026;-61
2021/10/25 13:14:09;;;;;;;10.27;2.83;;;;;;;8.29;41.57;101984.70;1734794;81;21061;-73
2021/10/25 13:19:09;;;;;;;11.97;4.00;;;;;;;8.28;41.69;101985.66;1726505;81;21058;-63
2021/10/25 13:21:35;;;;;;;11.77;4.17;;;;;;;8.30;41.10;101985.54;1725138;81;20999;-62
2021/10/25 13:24:02;;;;;;;19.25;4.90;;;;;;;8.24;40.75;101982.92;1724397;81;21061;-60
2021/10/25 13:26:30;;;;;;;13.05;4.97;;;;;;;8.19;41.08;101975.83;1730195;81;20983;-63
2021/10/25 13:28:56;;;;;;;14.60;4.83;;;;;;;8.14;41.15;101984.70;1732158;81;21034;-63
2021/10/25 13:31:22;;;;;;;12.80;4.87;;;;;;;8.11;41.31;101973.84;1739451;81;21077;-65
2021/10/25 13:33:50;;;;;;;16.80;5.43;;;;;;;8.11;41.23;101974.34;1721296;81;20998;-62
2021/10/25 13:36:16;;;;;;;21.42;6.25;;;;;;;8.12;41.11;101982.17;1720158;81;21158;-61